Time;durP1;ratioP1;P1;durP2;ratioP2;P2;SDS_P1;SDS_P2;PMS_P1;PMS_P2;Temp;Humidity;BMP_temperature;BMP_pressure;BME280_temperature;BME280_humidity;BME280_pressure;Samples;Min_cycle;Max_cycle;Signal;HPM_P1;HPM_P2
2023/04/17 00:03:13;;;;;;;8.20;6.63;;;;;;;;;;10410706;28;20041;-90
2023/04/17 00:08:36;;;;;;;8.73;6.45;;;;;;;;;;10452299;23;20090;-86
2023/04/17 00:14:00;;;;;;;8.63;6.53;;;;;;;;;;10412310;28;20038;-90
2023/04/17 00:19:12;;;;;;;9.48;7.00;;;;;;;;;;10623579;23;20060;-85
2023/04/17 00:24:47;;;;;;;9.95;7.00;;;;;;;;;;10428253;28;20040;-83
2023/04/17 00:35:03;;;;;;;10.20;7.22;;;;;;;;;;10423644;28;20045;-91
2023/04/17 00:40:05;;;;;;;10.18;6.93;;;;;;;;;;10376063;28;20062;-86
2023/04/17 00:45:09;;;;;;;11.30;7.63;;;;;;;;;;10399581;28;20038;-83
2023/04/17 00:50:11;;;;;;;10.40;7.22;;;;;;;;;;10407458;28;20041;-83
2023/04/17 00:55:14;;;;;;;11.50;6.82;;;;;;;;;;10429937;28;20092;-86
2023/04/17 01:00:18;;;;;;;10.80;7.50;;;;;;;;;;10463910;28;20056;-90
2023/04/17 01:16:03;;;;;;;10.80;7.55;;;;;;;;;;10470575;28;19905;-86
2023/04/17 01:21:14;;;;;;;12.52;7.60;;;;;;;;;;10451322;28;20822;-85
2023/04/17 01:26:18;;;;;;;8.73;6.80;;;;;;;;;;10399925;28;20044;-89
2023/04/17 01:31:30;;;;;;;8.63;7.15;;;;;;;;;;10425845;28;20304;-90
2023/04/17 01:36:34;;;;;;;11.65;7.35;;;;;;;;;;10489295;28;20045;-90
2023/04/17 01:41:35;;;;;;;10.55;7.05;;;;;;;;;;10498824;28;20197;-87
2023/04/17 01:46:37;;;;;;;10.15;7.63;;;;;;;;;;10456485;28;20056;-88
2023/04/17 01:51:41;;;;;;;10.18;6.57;;;;;;;;;;10415634;28;20125;-87
2023/04/17 01:56:42;;;;;;;10.57;7.10;;;;;;;;;;10405608;28;20064;-88
2023/04/17 02:01:45;;;;;;;9.30;6.15;;;;;;;;;;10431159;28;20041;-88
2023/04/17 02:06:46;;;;;;;10.50;6.97;;;;;;;;;;10457615;28;20124;-87
2023/04/17 02:11:50;;;;;;;7.65;6.15;;;;;;;;;;10444505;28;20080;-88
2023/04/17 02:16:57;;;;;;;8.45;6.15;;;;;;;;;;10428124;28;20058;-88
2023/04/17 02:22:09;;;;;;;9.15;5.90;;;;;;;;;;10475747;28;20113;-86
2023/04/17 02:33:01;;;;;;;9.68;5.88;;;;;;;;;;10531762;28;20029;-89
2023/04/17 02:38:17;;;;;;;7.70;5.70;;;;;;;;;;10493015;28;20068;-84
2023/04/17 02:43:30;;;;;;;8.00;5.40;;;;;;;;;;10498001;28;20048;-84
2023/04/17 02:48:34;;;;;;;8.07;6.22;;;;;;;;;;10468227;28;20147;-87
2023/04/17 02:53:37;;;;;;;8.98;5.80;;;;;;;;;;10499308;28;20176;-88
2023/04/17 02:58:39;;;;;;;8.73;5.82;;;;;;;;;;10498636;28;20068;-86
2023/04/17 03:03:43;;;;;;;10.05;6.43;;;;;;;;;;10511168;28;20476;-87
2023/04/17 03:08:47;;;;;;;7.60;5.85;;;;;;;;;;10471735;28;20083;-86
2023/04/17 03:13:49;;;;;;;7.88;5.45;;;;;;;;;;10485635;28;20036;-88
2023/04/17 03:24:11;;;;;;;10.63;6.07;;;;;;;;;;10505506;28;20049;-85
2023/04/17 03:29:37;;;;;;;6.93;5.15;;;;;;;;;;10481758;28;20048;-89
2023/04/17 03:34:39;;;;;;;8.07;5.80;;;;;;;;;;10477795;28;20036;-87
2023/04/17 03:39:59;;;;;;;7.35;5.78;;;;;;;;;;10619265;23;20037;-89
2023/04/17 03:45:02;;;;;;;8.73;5.72;;;;;;;;;;10483801;28;20032;-86
2023/04/17 03:50:09;;;;;;;7.63;6.00;;;;;;;;;;10508398;28;20056;-84
2023/04/17 04:06:48;;;;;;;8.75;6.55;;;;;;;;;;10594795;23;20045;-84
2023/04/17 04:11:57;;;;;;;9.45;6.00;;;;;;;;;;10464166;28;20052;-84
2023/04/17 04:16:58;;;;;;;;;;;;;;;;;;10503852;28;20028;-88
2023/04/17 04:22:09;;;;;;;8.60;6.18;;;;;;;;;;10496181;23;19928;-89
2023/04/17 04:27:31;;;;;;;7.80;5.78;;;;;;;;;;10564956;23;20048;-86
2023/04/17 04:32:33;;;;;;;8.73;6.60;;;;;;;;;;10509794;22;20053;-80
2023/04/17 04:37:34;;;;;;;10.63;6.00;;;;;;;;;;10671722;22;20056;-86
2023/04/17 04:42:41;;;;;;;10.23;6.35;;;;;;;;;;10446142;28;20051;-87
2023/04/17 04:47:48;;;;;;;7.97;5.95;;;;;;;;;;10463013;28;20041;-85
2023/04/17 04:52:49;;;;;;;8.48;6.15;;;;;;;;;;10482540;28;20123;-84
2023/04/17 04:58:06;;;;;;;8.93;6.10;;;;;;;;;;10505354;28;20044;-82
2023/04/17 05:03:10;;;;;;;9.00;6.20;;;;;;;;;;10838814;22;20763;-79
2023/04/17 05:08:10;;;;;;;9.35;7.07;;;;;;;;;;10668677;22;20041;-81
2023/04/17 05:13:13;;;;;;;9.00;7.13;;;;;;;;;;10448808;28;20053;-83
2023/04/17 05:18:21;;;;;;;9.63;6.33;;;;;;;;;;11044072;22;20060;-80
2023/04/17 05:23:41;;;;;;;9.40;6.68;;;;;;;;;;11508880;22;20064;-82
2023/04/17 05:28:44;;;;;;;9.77;6.95;;;;;;;;;;11312247;22;20062;-84
2023/04/17 05:33:55;;;;;;;10.30;6.50;;;;;;;;;;10389274;28;20061;-85
2023/04/17 05:38:55;;;;;;;9.90;6.30;;;;;;;;;;10354857;28;20084;-80
2023/04/17 05:43:56;;;;;;;8.40;5.97;;;;;;;;;;10564255;23;20513;-80
2023/04/17 05:54:31;;;;;;;8.57;5.93;;;;;;;;;;10820276;22;20061;-84
2023/04/17 05:59:36;;;;;;;7.80;6.05;;;;;;;;;;10692944;22;20153;-81
2023/04/17 06:15:27;;;;;;;8.75;6.00;;;;;;;;;;11855813;22;20058;-84
2023/04/17 06:20:28;;;;;;;;;;;;;;;;;;10383457;28;20183;-82
2023/04/17 06:30:55;;;;;;;7.90;6.22;;;;;;;;;;11218328;23;20065;-82
2023/04/17 06:35:56;;;;;;;7.60;6.13;;;;;;;;;;10498994;22;20068;-79
2023/04/17 06:41:15;;;;;;;9.45;6.35;;;;;;;;;;10448087;28;20120;-85
2023/04/17 06:46:16;;;;;;;8.88;6.75;;;;;;;;;;10408242;28;20077;-84
2023/04/17 06:51:19;;;;;;;8.82;6.35;;;;;;;;;;10404530;28;20410;-85
2023/04/17 06:56:20;;;;;;;8.55;5.80;;;;;;;;;;10408652;28;20839;-84
2023/04/17 07:01:21;;;;;;;7.20;5.75;;;;;;;;;;10420516;28;20069;-84
2023/04/17 07:06:26;;;;;;;7.45;5.78;;;;;;;;;;10420869;28;20045;-87
2023/04/17 07:11:30;;;;;;;6.90;5.20;;;;;;;;;;10411107;28;20045;-85
2023/04/17 07:16:30;;;;;;;7.70;5.50;;;;;;;;;;10430576;28;20046;-84
2023/04/17 07:21:31;;;;;;;6.20;5.18;;;;;;;;;;10428261;28;20114;-83
2023/04/17 07:26:33;;;;;;;8.15;5.13;;;;;;;;;;10433820;28;20057;-86
2023/04/17 07:31:37;;;;;;;6.93;5.80;;;;;;;;;;10413696;28;20056;-85
2023/04/17 07:36:38;;;;;;;;;;;;;;;;;;10440768;28;20029;-82
2023/04/17 07:41:38;;;;;;;8.98;6.43;;;;;;;;;;10407920;28;19923;-84
2023/04/17 07:46:40;;;;;;;7.75;6.05;;;;;;;;;;10637267;22;20054;-88
2023/04/17 07:51:41;;;;;;;9.73;6.43;;;;;;;;;;10310882;28;20049;-89
2023/04/17 07:56:45;;;;;;;8.50;6.43;;;;;;;;;;10580096;23;20084;-90
2023/04/17 08:01:51;;;;;;;10.27;7.63;;;;;;;;;;10432908;28;20084;-86
2023/04/17 08:12:17;;;;;;;9.57;6.93;;;;;;;;;;10660835;22;20316;-85
2023/04/17 08:17:22;;;;;;;8.68;5.90;;;;;;;;;;10770606;22;20171;-87
2023/04/17 08:22:30;;;;;;;8.73;5.83;;;;;;;;;;10476187;28;20127;-86
2023/04/17 08:27:30;;;;;;;6.70;5.30;;;;;;;;;;10483589;28;20037;-86
2023/04/17 08:32:41;;;;;;;9.57;5.43;;;;;;;;;;10516444;28;20133;-85
2023/04/17 08:37:45;;;;;;;7.35;4.78;;;;;;;;;;10675530;22;20033;-86
2023/04/17 08:42:48;;;;;;;4.78;3.78;;;;;;;;;;10487210;28;20028;-86
2023/04/17 08:47:48;;;;;;;6.50;4.82;;;;;;;;;;10484392;28;20029;-84
2023/04/17 08:52:51;;;;;;;5.73;4.33;;;;;;;;;;10788270;23;20060;-85
2023/04/17 09:03:18;;;;;;;5.97;4.65;;;;;;;;;;12050224;22;19951;-89
2023/04/17 09:08:22;;;;;;;6.50;4.50;;;;;;;;;;10527041;22;20049;-85
2023/04/17 09:19:03;;;;;;;6.13;4.50;;;;;;;;;;10483718;22;20033;-84
2023/04/17 09:24:05;;;;;;;6.15;4.90;;;;;;;;;;11846659;23;20033;-84
2023/04/17 09:34:47;;;;;;;8.10;4.80;;;;;;;;;;10830610;22;20042;-85
2023/04/17 09:40:01;;;;;;;7.88;4.70;;;;;;;;;;10463247;28;20048;-90
2023/04/17 09:50:41;;;;;;;5.28;4.00;;;;;;;;;;10462465;28;20610;-87
2023/04/17 09:56:08;;;;;;;5.55;3.70;;;;;;;;;;10453309;28;20049;-90
2023/04/17 10:01:08;;;;;;;5.78;4.28;;;;;;;;;;10443423;28;20086;-89
2023/04/17 10:06:09;;;;;;;5.10;3.97;;;;;;;;;;10445136;28;20049;-90
2023/04/17 10:11:12;;;;;;;5.45;4.47;;;;;;;;;;10420391;28;20049;-85
2023/04/17 10:16:21;;;;;;;5.67;4.23;;;;;;;;;;10418209;28;20095;-85
2023/04/17 10:21:28;;;;;;;4.30;3.60;;;;;;;;;;10441948;28;20052;-86
2023/04/17 10:32:24;;;;;;;4.28;2.92;;;;;;;;;;10704279;22;20043;-84
2023/04/17 10:37:43;;;;;;;3.83;2.65;;;;;;;;;;10506336;28;20037;-86
2023/04/17 10:48:18;;;;;;;3.40;2.75;;;;;;;;;;11158504;22;20069;-85
2023/04/17 10:59:02;;;;;;;3.25;2.17;;;;;;;;;;10908102;22;20101;-85
2023/04/17 11:04:20;;;;;;;2.33;1.75;;;;;;;;;;10487111;28;20056;-85
2023/04/17 11:09:33;;;;;;;6.03;3.80;;;;;;;;;;10465132;28;20049;-84
2023/04/17 11:14:41;;;;;;;2.80;1.90;;;;;;;;;;10492809;28;20028;-91
2023/04/17 11:19:46;;;;;;;2.00;1.80;;;;;;;;;;10478592;28;20075;-88
2023/04/17 11:24:50;;;;;;;2.42;2.20;;;;;;;;;;10498924;28;20036;-87
2023/04/17 11:29:50;;;;;;;9.65;6.40;;;;;;;;;;10478053;28;20045;-84
2023/04/17 11:34:53;;;;;;;2.67;2.40;;;;;;;;;;10499561;28;20057;-86
2023/04/17 11:40:04;;;;;;;2.13;1.92;;;;;;;;;;10483114;28;20304;-85
2023/04/17 11:45:06;;;;;;;2.10;1.77;;;;;;;;;;10512606;28;20029;-85
2023/04/17 11:50:06;;;;;;;1.55;1.40;;;;;;;;;;10511085;28;20029;-85
2023/04/17 11:55:10;;;;;;;2.00;1.45;;;;;;;;;;10516919;28;20043;-88
2023/04/17 12:00:16;;;;;;;2.15;1.85;;;;;;;;;;10668642;22;20033;-88
2023/04/17 12:05:18;;;;;;;2.05;1.77;;;;;;;;;;10499826;28;20084;-84
2023/04/17 12:10:18;;;;;;;1.70;1.60;;;;;;;;;;10744505;22;20037;-87
2023/04/17 12:15:19;;;;;;;1.90;1.60;;;;;;;;;;10469337;28;20097;-87
2023/04/17 12:20:28;;;;;;;1.98;1.88;;;;;;;;;;10711967;23;20049;-89
2023/04/17 12:25:29;;;;;;;1.70;1.60;;;;;;;;;;11477131;22;20029;-88
2023/04/17 12:30:34;;;;;;;3.67;1.98;;;;;;;;;;10519805;28;20060;-86
2023/04/17 12:35:40;;;;;;;1.70;1.60;;;;;;;;;;10493481;28;20032;-86
2023/04/17 12:40:42;;;;;;;2.00;1.90;;;;;;;;;;10493548;28;20056;-87
2023/04/17 12:45:44;;;;;;;1.38;1.27;;;;;;;;;;10511170;28;20114;-87
2023/04/17 12:51:10;;;;;;;2.17;1.90;;;;;;;;;;10504076;28;20048;-90
2023/04/17 12:56:20;;;;;;;1.88;1.77;;;;;;;;;;10480727;28;20084;-87
2023/04/17 13:01:32;;;;;;;;;;;;;;;;;;;;;
2023/04/17 13:06:41;;;;;;;1.52;1.42;;;;;;;;;;5800254;22;20058;-87
2023/04/17 13:11:41;;;;;;;1.73;1.27;;;;;;;;;;10416676;28;20044;-87
2023/04/17 13:16:42;;;;;;;1.73;1.30;;;;;;;;;;10844302;22;20062;-88
2023/04/17 13:27:30;;;;;;;2.35;1.60;;;;;;;;;;10361436;28;20050;-88
2023/04/17 13:32:33;;;;;;;1.50;1.23;;;;;;;;;;10358717;28;20043;-80
2023/04/17 13:37:40;;;;;;;1.52;1.42;;;;;;;;;;10344168;28;20059;-84
2023/04/17 13:42:42;;;;;;;1.40;1.30;;;;;;;;;;10391964;28;20046;-85
2023/04/17 13:47:43;;;;;;;1.30;1.20;;;;;;;;;;10622803;22;20040;-85
2023/04/17 13:52:49;;;;;;;1.20;1.10;;;;;;;;;;10848719;22;20061;-86
2023/04/17 13:57:53;;;;;;;1.25;1.15;;;;;;;;;;11702116;22;21578;-85
2023/04/17 14:13:49;;;;;;;;;;;;;;;;;;10439629;23;20050;-83
2023/04/17 14:18:51;;;;;;;1.40;1.30;;;;;;;;;;10430168;28;19929;-86
2023/04/17 14:23:52;;;;;;;1.40;1.30;;;;;;;;;;10410003;28;20319;-86
2023/04/17 14:28:52;;;;;;;1.50;1.40;;;;;;;;;;10970968;22;20556;-85
2023/04/17 14:34:02;;;;;;;1.40;1.25;;;;;;;;;;10448824;28;20049;-86
2023/04/17 14:39:03;;;;;;;1.73;1.63;;;;;;;;;;10462849;28;20049;-86
2023/04/17 14:44:07;;;;;;;1.70;1.30;;;;;;;;;;10855757;22;20052;-85
2023/04/17 14:49:36;;;;;;;1.50;1.40;;;;;;;;;;10470489;28;20057;-84
2023/04/17 14:54:39;;;;;;;1.60;1.50;;;;;;;;;;10438996;28;20048;-86
2023/04/17 14:59:40;;;;;;;2.67;1.77;;;;;;;;;;10512600;22;20061;-84
2023/04/17 15:04:49;;;;;;;1.60;1.50;;;;;;;;;;10557430;22;20042;-85
2023/04/17 15:26:10;;;;;;;2.50;2.30;;;;;;;;;;11105050;22;20049;-85
2023/04/17 15:46:07;;;;;;;3.88;2.92;;;;;;;;;;10599348;27;1274750;-81
2023/04/17 15:51:08;;;;;;;4.13;3.43;;;;;;;;;;10664797;27;20030;-82
2023/04/17 15:56:08;;;;;;;5.10;4.05;;;;;;;;;;10663569;27;20300;-80
2023/04/17 16:01:09;;;;;;;4.53;3.70;;;;;;;;;;10748211;22;20056;-80
2023/04/17 16:06:10;;;;;;;4.93;3.75;;;;;;;;;;10502685;28;20480;-84
2023/04/17 16:11:12;;;;;;;4.63;3.92;;;;;;;;;;11226649;22;20935;-83
2023/04/17 16:22:13;;;;;;;5.33;3.73;;;;;;;;;;11229837;22;20096;-92
2023/04/17 16:27:39;;;;;;;4.88;3.67;;;;;;;;;;10405155;28;20054;-88
2023/04/17 16:32:40;;;;;;;;;;;;;;;;;;10383424;28;20031;-82
2023/04/17 16:37:40;;;;;;;6.28;4.88;;;;;;;;;;10361825;28;19934;-88
2023/04/17 16:42:43;;;;;;;7.03;5.03;;;;;;;;;;10375314;28;20054;-88
2023/04/17 16:47:48;;;;;;;6.22;4.80;;;;;;;;;;10372352;28;20320;-84
2023/04/17 16:52:51;;;;;;;7.82;5.85;;;;;;;;;;10377248;28;20038;-86
2023/04/17 16:57:54;;;;;;;7.50;6.13;;;;;;;;;;10324999;28;20075;-85
2023/04/17 17:02:56;;;;;;;10.23;6.35;;;;;;;;;;10348628;28;20105;-85
2023/04/17 17:07:57;;;;;;;8.32;6.20;;;;;;;;;;10672752;23;20062;-84
2023/04/17 17:13:03;;;;;;;8.48;6.35;;;;;;;;;;10338733;28;20093;-87
2023/04/17 17:18:03;;;;;;;9.60;6.53;;;;;;;;;;10346151;28;20101;-85
2023/04/17 17:23:05;;;;;;;8.05;6.07;;;;;;;;;;10361265;28;20140;-85
2023/04/17 17:28:09;;;;;;;8.13;5.90;;;;;;;;;;10357864;28;20006;-88
2023/04/17 17:33:20;;;;;;;9.30;7.28;;;;;;;;;;10373547;28;20073;-86
2023/04/17 17:38:31;;;;;;;11.32;8.73;;;;;;;;;;10419823;23;20039;-85
2023/04/17 17:43:33;;;;;;;16.10;10.93;;;;;;;;;;10337055;28;20540;-86
2023/04/17 18:00:03;;;;;;;20.05;12.98;;;;;;;;;;10495368;22;20043;-88
2023/04/17 18:05:05;;;;;;;18.33;13.40;;;;;;;;;;10866305;22;20027;-86
2023/04/17 18:10:06;;;;;;;17.13;12.30;;;;;;;;;;10371217;28;20032;-86
2023/04/17 18:15:10;;;;;;;18.00;11.60;;;;;;;;;;10642558;22;20055;-86
2023/04/17 18:20:10;;;;;;;;;;;;;;;;;;10292232;28;20019;-87
2023/04/17 18:25:11;;;;;;;14.55;10.32;;;;;;;;;;10880771;23;19961;-83
2023/04/17 18:35:52;;;;;;;14.60;9.95;;;;;;;;;;10534539;22;20109;-86
2023/04/17 18:46:20;;;;;;;15.10;10.17;;;;;;;;;;6303652;23;20078;-85
2023/04/17 19:01:51;;;;;;;11.50;8.23;;;;;;;;;;10488141;23;20045;-81
2023/04/17 19:17:55;;;;;;;8.88;6.50;;;;;;;;;;11247679;23;20099;-84
2023/04/17 19:22:59;;;;;;;9.43;6.78;;;;;;;;;;11693380;23;20063;-82
2023/04/17 19:28:00;;;;;;;8.98;6.63;;;;;;;;;;10322286;28;20030;-84
2023/04/17 19:33:03;;;;;;;10.05;6.35;;;;;;;;;;10315055;28;20205;-84
2023/04/17 19:38:05;;;;;;;8.60;6.50;;;;;;;;;;10316470;28;20065;-85
2023/04/17 19:43:05;;;;;;;9.32;6.20;;;;;;;;;;10353840;28;20030;-85
2023/04/17 19:48:05;;;;;;;9.17;6.53;;;;;;;;;;10344393;28;20042;-84
2023/04/17 19:53:06;;;;;;;8.50;6.37;;;;;;;;;;10333374;28;20042;-86
2023/04/17 19:58:07;;;;;;;8.10;6.22;;;;;;;;;;10352623;28;20272;-82
2023/04/17 20:03:08;;;;;;;9.85;6.90;;;;;;;;;;10343962;28;20105;-89
2023/04/17 20:31:23;;;;;;;9.43;6.60;;;;;;;;;;10388597;28;20074;-90
2023/04/17 20:52:38;;;;;;;10.40;7.78;;;;;;;;;;10723775;22;20042;-90
2023/04/17 20:57:38;;;;;;;11.30;8.13;;;;;;;;;;10397906;28;20058;-89
2023/04/17 21:02:39;;;;;;;10.73;7.93;;;;;;;;;;10370969;28;20045;-89
2023/04/17 21:07:50;;;;;;;11.02;7.60;;;;;;;;;;10881424;23;20060;-90
2023/04/17 21:18:23;;;;;;;11.40;7.97;;;;;;;;;;10349301;28;20062;-90
2023/04/17 21:23:28;;;;;;;10.80;8.10;;;;;;;;;;10342871;28;20054;-87
2023/04/17 21:28:30;;;;;;;11.82;8.27;;;;;;;;;;10335736;28;20077;-87
2023/04/17 21:33:30;;;;;;;11.70;8.33;;;;;;;;;;10354674;28;20121;-89
2023/04/17 21:38:35;;;;;;;12.53;8.50;;;;;;;;;;10357867;28;20054;-90
2023/04/17 21:43:36;;;;;;;15.23;9.32;;;;;;;;;;10360752;28;20327;-88
2023/04/17 21:48:39;;;;;;;11.15;8.35;;;;;;;;;;10354288;28;20047;-89
2023/04/17 21:53:42;;;;;;;15.90;9.50;;;;;;;;;;10363545;28;20115;-89
2023/04/17 21:58:43;;;;;;;12.80;8.88;;;;;;;;;;10348045;28;20038;-86
2023/04/17 22:03:46;;;;;;;10.80;7.97;;;;;;;;;;10388156;23;20049;-88
2023/04/17 22:08:47;;;;;;;13.32;9.30;;;;;;;;;;10416563;28;20050;-87
2023/04/17 22:13:47;;;;;;;16.35;9.93;;;;;;;;;;10412641;28;20128;-89
2023/04/17 22:19:07;;;;;;;13.70;9.38;;;;;;;;;;10397004;28;20042;-89
2023/04/17 22:24:08;;;;;;;11.75;8.57;;;;;;;;;;10429132;28;20219;-87
2023/04/17 22:29:27;;;;;;;14.25;9.15;;;;;;;;;;10424645;28;20041;-90
2023/04/17 22:34:28;;;;;;;12.48;9.55;;;;;;;;;;10424641;28;20060;-89
2023/04/17 22:39:30;;;;;;;12.35;9.27;;;;;;;;;;10421254;28;20053;-89
2023/04/17 22:44:47;;;;;;;14.13;9.00;;;;;;;;;;10426240;28;20402;-87
2023/04/17 22:55:33;;;;;;;;;;;;;;;;;;;;;
2023/04/17 23:01:02;;;;;;;14.77;10.00;;;;;;;;;;10330888;28;20173;-87
2023/04/17 23:06:10;;;;;;;13.07;9.50;;;;;;;;;;10315720;28;20345;-85
2023/04/17 23:11:19;;;;;;;13.77;9.95;;;;;;;;;;10363417;28;20049;-85
2023/04/17 23:16:20;;;;;;;16.90;10.75;;;;;;;;;;10370075;28;20027;-86
2023/04/17 23:21:20;;;;;;;13.95;9.68;;;;;;;;;;10341662;28;20070;-84
2023/04/17 23:26:21;;;;;;;15.00;9.85;;;;;;;;;;10337334;28;20117;-87
2023/04/17 23:31:22;;;;;;;15.40;10.43;;;;;;;;;;10349776;28;20038;-87
2023/04/17 23:36:25;;;;;;;17.53;10.53;;;;;;;;;;10363900;28;20686;-85
2023/04/17 23:41:26;;;;;;;17.20;9.85;;;;;;;;;;10353818;28;20030;-85
2023/04/17 23:46:28;;;;;;;14.35;9.55;;;;;;;;;;10325589;28;20046;-85
2023/04/17 23:51:30;;;;;;;14.38;10.15;;;;;;;;;;10321609;28;20057;-85
2023/04/17 23:56:31;;;;;;;15.55;9.75;;;;;;;;;;10335796;28;20073;-90
